Time,TemperatureF,DewpointF,PressureIn,WindDirection,WindDirectionDegrees,WindSpeedMPH,WindSpeedGustMPH,Humidity,HourlyPrecipIn,Conditions,Clouds,dailyrainin,SoftwareType,DateUTC
2013-10-05 00:01:00,59.9,58.2,29.70,ENE,57,0.0,0.0,94,0.00,CLR,SCT,0.00,WeatherDisplay:10.37,2013-10-05 04:01:00,
2013-10-05 00:02:00,59.9,58.2,29.70,ENE,57,0.0,0.0,94,0.00,CLR,SCT,0.00,WeatherDisplay:10.37,2013-10-05 04:02:00,
2013-10-05 00:07:00,59.8,58.1,29.70,ENE,57,0.0,0.0,94,0.00,CLR,SCT,0.00,WeatherDisplay:10.37,2013-10-05 04:07:00,
2013-10-05 00:12:00,59.8,58.1,29.70,ENE,57,0.0,0.0,94,0.00,CLR,SCT,0.00,WeatherDisplay:10.37,2013-10-05 04:12:00,
2013-10-05 00:17:00,59.8,58.1,29.70,ENE,57,0.0,1.0,94,0.00,CLR,SCT,0.00,WeatherDisplay:10.37,2013-10-05 04:17:00,
2013-10-05 00:22:00,59.7,58.0,29.70,ENE,57,0.0,0.0,94,0.00,CLR,SCT,0.00,WeatherDisplay:10.37,2013-10-05 04:22:00,
2013-10-05 00:27:00,59.6,57.9,29.69,ENE,57,0.0,0.0,94,0.00,CLR,SCT,0.00,WeatherDisplay:10.37,2013-10-05 04:27:00,
2013-10-05 00:32:00,59.6,57.9,29.69,ENE,57,0.0,0.0,94,0.00,CLR,SCT,0.00,WeatherDisplay:10.37,2013-10-05 04:32:00,
2013-10-05 00:37:00,59.5,57.8,29.69,ENE,57,0.1,1.1,94,0.00,CLR,SCT,0.00,WeatherDisplay:10.37,2013-10-05 04:37:00,
2013-10-05 00:42:00,59.4,57.7,29.69,ENE,57,0.0,0.0,94,0.00,CLR,SCT,0.00,WeatherDisplay:10.37,2013-10-05 04:42:00,
2013-10-05 00:47:00,59.3,57.6,29.69,ENE,57,0.0,0.0,94,0.00,CLR,SCT,0.00,WeatherDisplay:10.37,2013-10-05 04:47:00,
2013-10-05 00:52:00,59.2,57.5,29.70,ENE,57,0.0,0.0,94,0.00,CLR,SCT,0.00,WeatherDisplay:10.37,2013-10-05 04:52:00,
2013-10-05 00:57:00,59.0,57.3,29.71,ENE,57,0.9,2.3,94,0.00,CLR,SCT,0.00,WeatherDisplay:10.37,2013-10-05 04:57:00,
2013-10-05 01:02:00,58.9,57.2,29.71,ENE,57,0.0,0.0,94,0.00,CLR,SCT,0.00,WeatherDisplay:10.37,2013-10-05 05:02:00,
2013-10-05 01:07:00,58.8,57.4,29.71,ENE,57,0.0,0.0,95,0.00,CLR,SCT,0.00,WeatherDisplay:10.37,2013-10-05 05:07:00,
2013-10-05 01:12:00,58.8,57.4,29.71,ENE,57,0.1,1.1,95,0.00,CLR,SCT,0.00,WeatherDisplay:10.37,2013-10-05 05:12:00,
2013-10-05 01:17:00,58.9,57.5,29.71,ENE,57,0.1,1.1,95,0.00,CLR,SCT,0.00,WeatherDisplay:10.37,2013-10-05 05:17:00,
2013-10-05 01:22:00,58.9,57.5,29.71,ENE,57,0.0,0.0,95,0.00,CLR,SCT,0.00,WeatherDisplay:10.37,2013-10-05 05:22:00,
2013-10-05 01:27:00,59.0,57.6,29.71,ENE,57,0.0,0.0,95,0.00,CLR,SCT,0.00,WeatherDisplay:10.37,2013-10-05 05:27:00,
2013-10-05 01:32:00,59.0,57.6,29.71,ENE,57,0.0,0.0,95,0.00,CLR,SCT,0.00,WeatherDisplay:10.37,2013-10-05 05:32:00,
2013-10-05 01:37:00,59.1,57.7,29.71,ENE,57,0.1,1.1,95,0.00,CLR,SCT,0.00,WeatherDisplay:10.37,2013-10-05 05:37:00,
2013-10-05 01:42:00,59.1,58.0,29.71,ENE,57,0.0,0.0,96,0.00,CLR,SCT,0.00,WeatherDisplay:10.37,2013-10-05 05:42:00,
2013-10-05 01:47:00,59.1,58.0,29.72,ENE,57,0.1,1.1,96,0.00,CLR,SCT,0.00,WeatherDisplay:10.37,2013-10-05 05:47:00,
2013-10-05 01:52:00,59.1,58.0,29.71,ENE,57,0.0,0.0,96,0.00,CLR,SCT,0.00,WeatherDisplay:10.37,2013-10-05 05:52:00,
2013-10-05 01:57:00,59.2,57.8,29.71,ENE,57,0.0,1.0,95,0.00,CLR,SCT,0.00,WeatherDisplay:10.37,2013-10-05 05:57:00,
2013-10-05 02:02:00,59.2,57.8,29.70,ENE,57,0.0,1.1,95,0.00,CLR,SCT,0.00,WeatherDisplay:10.37,2013-10-05 06:02:00,
2013-10-05 02:07:00,59.2,57.8,29.70,East,100,0.1,1.1,95,0.00,CLR,SCT,0.00,WeatherDisplay:10.37,2013-10-05 06:07:00,
2013-10-05 02:12:00,59.2,57.8,29.71,East,100,0.0,0.0,95,0.00,CLR,SCT,0.00,WeatherDisplay:10.37,2013-10-05 06:12:00,
2013-10-05 02:17:00,59.3,57.9,29.70,ESE,102,0.0,1.1,95,0.00,CLR,SCT,0.00,WeatherDisplay:10.37,2013-10-05 06:17:00,
2013-10-05 02:22:00,59.3,57.9,29.70,NNE,25,1.2,2.3,95,0.00,CLR,SCT,0.00,WeatherDisplay:10.37,2013-10-05 06:22:00,
2013-10-05 02:27:00,59.3,57.9,29.71,NNE,25,0.0,0.0,95,0.00,CLR,SCT,0.00,WeatherDisplay:10.37,2013-10-05 06:27:00,
2013-10-05 02:32:00,59.3,57.9,29.70,NNE,25,0.0,0.0,95,0.00,CLR,SCT,0.00,WeatherDisplay:10.37,2013-10-05 06:32:00,
2013-10-05 02:37:00,59.4,58.0,29.70,NNE,25,0.0,0.0,95,0.00,CLR,SCT,0.00,WeatherDisplay:10.37,2013-10-05 06:37:00,
2013-10-05 02:42:00,59.3,57.6,29.70,NNE,25,0.0,0.0,94,0.00,CLR,SCT,0.00,WeatherDisplay:10.37,2013-10-05 06:42:00,
2013-10-05 02:47:00,59.3,57.9,29.70,NNE,25,0.0,0.0,95,0.00,CLR,SCT,0.00,WeatherDisplay:10.37,2013-10-05 06:47:00,
2013-10-05 02:52:00,59.3,57.9,29.70,NNE,24,0.3,1.1,95,0.00,CLR,SCT,0.00,WeatherDisplay:10.37,2013-10-05 06:52:00,
2013-10-05 02:57:00,59.2,57.8,29.70,NNE,24,0.7,2.3,95,0.00,CLR,SCT,0.00,WeatherDisplay:10.37,2013-10-05 06:57:00,
2013-10-05 03:02:00,59.2,57.8,29.70,NNE,24,0.0,0.0,95,0.00,CLR,SCT,0.00,WeatherDisplay:10.37,2013-10-05 07:02:00,
2013-10-05 03:07:00,59.2,57.8,29.70,NNE,24,0.0,1.1,95,0.00,CLR,SCT,0.00,WeatherDisplay:10.37,2013-10-05 07:07:00,
2013-10-05 03:12:00,59.2,57.8,29.70,NNE,24,0.0,0.0,95,0.00,CLR,SCT,0.00,WeatherDisplay:10.37,2013-10-05 07:12:00,
2013-10-05 03:17:00,59.2,57.8,29.70,NNE,24,0.0,0.0,95,0.00,CLR,SCT,0.00,WeatherDisplay:10.37,2013-10-05 07:17:00,
2013-10-05 03:22:00,59.2,57.8,29.70,NNE,24,0.0,0.0,95,0.00,CLR,SCT,0.00,WeatherDisplay:10.37,2013-10-05 07:22:00,
2013-10-05 03:27:00,59.2,57.8,29.70,NNE,24,0.0,0.0,95,0.00,CLR,SCT,0.00,WeatherDisplay:10.37,2013-10-05 07:27:00,
2013-10-05 03:32:00,59.2,57.8,29.70,NNE,24,0.0,0.0,95,0.00,CLR,SCT,0.00,WeatherDisplay:10.37,2013-10-05 07:32:00,
2013-10-05 03:37:00,59.3,57.9,29.70,NNE,24,0.0,0.0,95,0.00,CLR,SCT,0.00,WeatherDisplay:10.37,2013-10-05 07:37:00,
2013-10-05 03:42:00,59.3,57.9,29.70,NNE,24,0.0,0.0,95,0.00,CLR,SCT,0.00,WeatherDisplay:10.37,2013-10-05 07:42:00,
2013-10-05 03:47:00,59.2,57.8,29.70,NNE,24,0.0,0.0,95,0.00,CLR,SCT,0.00,WeatherDisplay:10.37,2013-10-05 07:47:00,
2013-10-05 03:52:00,59.3,57.9,29.70,NNE,24,0.0,0.0,95,0.00,CLR,SCT,0.00,WeatherDisplay:10.37,2013-10-05 07:52:00,
2013-10-05 03:57:00,59.3,57.9,29.70,NNE,24,0.0,0.0,95,0.00,CLR,SCT,0.00,WeatherDisplay:10.37,2013-10-05 07:57:00,
2013-10-05 04:02:00,59.2,57.8,29.71,NNE,24,0.0,0.0,95,0.00,CLR,SCT,0.00,WeatherDisplay:10.37,2013-10-05 08:02:00,
2013-10-05 04:07:00,59.3,57.9,29.71,NNE,24,0.0,0.0,95,0.00,CLR,SCT,0.00,WeatherDisplay:10.37,2013-10-05 08:07:00,
2013-10-05 04:12:00,59.3,57.9,29.71,NNE,24,0.0,0.0,95,0.00,CLR,SCT,0.00,WeatherDisplay:10.37,2013-10-05 08:12:00,
2013-10-05 04:17:00,59.2,57.8,29.71,NNE,24,0.0,0.0,95,0.00,CLR,SCT,0.00,WeatherDisplay:10.37,2013-10-05 08:17:00,
2013-10-05 04:22:00,59.2,57.8,29.70,NNE,24,0.0,0.0,95,0.00,CLR,SCT,0.00,WeatherDisplay:10.37,2013-10-05 08:22:00,
2013-10-05 04:27:00,59.3,58.2,29.71,NNE,24,0.0,0.0,96,0.00,CLR,SCT,0.00,WeatherDisplay:10.37,2013-10-05 08:27:00,
2013-10-05 04:32:00,59.2,57.8,29.71,NNE,24,0.0,0.0,95,0.00,CLR,SCT,0.00,WeatherDisplay:10.37,2013-10-05 08:32:00,
2013-10-05 04:37:00,59.2,57.8,29.71,NNE,24,0.0,0.0,95,0.00,CLR,SCT,0.00,WeatherDisplay:10.37,2013-10-05 08:37:00,
2013-10-05 04:42:00,59.2,57.8,29.71,NNE,24,0.0,0.0,95,0.00,CLR,SCT,0.00,WeatherDisplay:10.37,2013-10-05 08:42:00,
2013-10-05 04:47:00,59.2,57.8,29.70,NNE,24,0.0,0.0,95,0.00,CLR,SCT,0.00,WeatherDisplay:10.37,2013-10-05 08:47:00,
2013-10-05 04:52:00,59.2,57.8,29.71,NNE,24,0.0,0.0,95,0.00,CLR,SCT,0.00,WeatherDisplay:10.37,2013-10-05 08:52:00,
2013-10-05 04:57:00,59.1,57.7,29.70,ENE,70,0.4,1.1,95,0.00,CLR,SCT,0.00,WeatherDisplay:10.37,2013-10-05 08:57:00,
2013-10-05 05:02:00,59.1,57.7,29.70,ENE,70,0.0,0.0,95,0.00,CLR,SCT,0.00,WeatherDisplay:10.37,2013-10-05 09:02:00,
2013-10-05 05:07:00,59.1,57.4,29.70,ENE,69,0.0,1.1,94,0.00,CLR,SCT,0.00,WeatherDisplay:10.37,2013-10-05 09:07:00,
2013-10-05 05:12:00,59.1,57.4,29.71,NNE,30,0.6,1.1,94,0.00,CLR,SCT,0.00,WeatherDisplay:10.37,2013-10-05 09:12:00,
2013-10-05 05:17:00,59.2,57.5,29.71,NNE,30,0.1,1.1,94,0.00,CLR,SCT,0.00,WeatherDisplay:10.37,2013-10-05 09:17:00,
2013-10-05 05:22:00,59.3,57.9,29.71,NNE,30,0.0,0.0,95,0.00,CLR,SCT,0.00,WeatherDisplay:10.37,2013-10-05 09:22:00,
2013-10-05 05:27:00,59.3,57.9,29.71,NNE,30,0.0,0.0,95,0.00,CLR,SCT,0.00,WeatherDisplay:10.37,2013-10-05 09:27:00,
2013-10-05 05:32:00,59.3,57.9,29.71,NNE,30,0.0,0.0,95,0.00,CLR,SCT,0.00,WeatherDisplay:10.37,2013-10-05 09:32:00,
2013-10-05 05:37:00,59.3,57.9,29.72,NNE,30,0.0,0.0,95,0.00,CLR,SCT,0.00,WeatherDisplay:10.37,2013-10-05 09:37:00,
2013-10-05 05:42:00,59.3,57.9,29.72,NNE,30,0.0,0.0,95,0.00,CLR,SCT,0.00,WeatherDisplay:10.37,2013-10-05 09:42:00,
2013-10-05 05:47:00,59.3,57.9,29.72,NNE,30,0.0,0.0,95,0.00,CLR,SCT,0.00,WeatherDisplay:10.37,2013-10-05 09:47:00,
2013-10-05 05:52:00,59.3,57.9,29.72,NNE,30,0.0,0.0,95,0.00,CLR,SCT,0.00,WeatherDisplay:10.37,2013-10-05 09:52:00,
2013-10-05 05:57:00,59.3,57.9,29.72,NNE,30,0.0,0.0,95,0.00,CLR,SCT,0.00,WeatherDisplay:10.37,2013-10-05 09:57:00,
2013-10-05 06:02:00,59.3,57.9,29.72,NNE,30,0.0,0.0,95,0.00,CLR,SCT,0.00,WeatherDisplay:10.37,2013-10-05 10:02:00,
2013-10-05 06:07:00,59.2,57.8,29.73,NNE,30,0.0,0.0,95,0.00,CLR,SCT,0.00,WeatherDisplay:10.37,2013-10-05 10:07:00,
2013-10-05 06:12:00,59.2,58.1,29.73,NNE,30,0.0,0.0,96,0.00,CLR,SCT,0.00,WeatherDisplay:10.37,2013-10-05 10:12:00,
2013-10-05 06:17:00,59.2,58.1,29.73,NNE,30,0.0,0.0,96,0.00,CLR,SCT,0.00,WeatherDisplay:10.37,2013-10-05 10:17:00,
2013-10-05 06:22:00,59.2,58.1,29.73,NNE,30,0.0,0.0,96,0.00,CLR,SCT,0.00,WeatherDisplay:10.37,2013-10-05 10:22:00,
2013-10-05 06:27:00,59.2,58.1,29.72,NNE,30,0.0,0.0,96,0.00,CLR,SCT,0.00,WeatherDisplay:10.37,2013-10-05 10:27:00,
2013-10-05 06:32:00,59.1,58.0,29.73,NNE,30,0.0,0.0,96,0.00,CLR,SCT,0.00,WeatherDisplay:10.37,2013-10-05 10:32:00,
2013-10-05 06:37:00,59.1,58.0,29.73,NNE,30,0.0,0.0,96,0.00,CLR,SCT,0.00,WeatherDisplay:10.37,2013-10-05 10:37:00,
2013-10-05 06:42:00,59.1,57.7,29.73,NE,35,0.2,1.1,95,0.00,CLR,SCT,0.00,WeatherDisplay:10.37,2013-10-05 10:42:00,
2013-10-05 06:47:00,59.1,57.7,29.73,NE,35,0.0,0.0,95,0.00,CLR,SCT,0.00,WeatherDisplay:10.37,2013-10-05 10:47:00,
2013-10-05 06:52:00,59.1,57.7,29.73,NE,36,0.0,0.0,95,0.00,CLR,SCT,0.00,WeatherDisplay:10.37,2013-10-05 10:52:00,
2013-10-05 06:57:00,59.0,57.6,29.73,ENE,63,0.0,1.1,95,0.00,CLR,SCT,0.00,WeatherDisplay:10.37,2013-10-05 10:57:00,
2013-10-05 07:02:00,59.0,57.6,29.73,ENE,63,0.0,0.0,95,0.00,CLR,SCT,0.00,WeatherDisplay:10.37,2013-10-05 11:02:00,
2013-10-05 07:07:00,59.1,57.7,29.73,ENE,63,0.0,0.0,95,0.00,CLR,SCT,0.00,WeatherDisplay:10.37,2013-10-05 11:07:00,
2013-10-05 07:12:00,59.1,57.7,29.73,ENE,63,0.0,0.0,95,0.00,CLR,SCT,0.00,WeatherDisplay:10.37,2013-10-05 11:12:00,
2013-10-05 07:17:00,59.1,57.7,29.73,NE,48,0.4,1.1,95,0.00,CLR,SCT,0.00,WeatherDisplay:10.37,2013-10-05 11:17:00,
2013-10-05 07:22:00,59.1,57.4,29.73,NE,48,0.0,0.0,94,0.00,CLR,SCT,0.00,WeatherDisplay:10.37,2013-10-05 11:22:00,
2013-10-05 07:27:00,59.1,57.4,29.73,NE,48,0.0,0.0,94,0.00,CLR,SCT,0.00,WeatherDisplay:10.37,2013-10-05 11:27:00,
2013-10-05 07:32:00,59.2,57.5,29.73,NE,48,0.0,1.1,94,0.00,CLR,SCT,0.00,WeatherDisplay:10.37,2013-10-05 11:32:00,
2013-10-05 07:37:00,59.2,57.5,29.73,NE,48,0.0,0.0,94,0.00,CLR,SCT,0.00,WeatherDisplay:10.37,2013-10-05 11:37:00,
2013-10-05 07:42:00,59.3,57.6,29.73,ENE,57,0.0,0.0,94,0.00,CLR,SCT,0.00,WeatherDisplay:10.37,2013-10-05 11:42:00,
2013-10-05 07:47:00,59.3,57.6,29.73,ENE,57,0.0,0.0,94,0.00,CLR,SCT,0.00,WeatherDisplay:10.37,2013-10-05 11:47:00,
2013-10-05 07:52:00,59.4,57.7,29.73,ESE,109,1.0,3.5,94,0.00,CLR,SCT,0.00,WeatherDisplay:10.37,2013-10-05 11:52:00,
2013-10-05 07:57:00,59.4,57.7,29.73,SSE,160,0.0,0.0,94,0.00,CLR,SCT,0.00,WeatherDisplay:10.37,2013-10-05 11:57:00,
2013-10-05 08:02:00,59.4,57.7,29.74,SSE,160,0.0,0.0,94,0.00,CLR,SCT,0.00,WeatherDisplay:10.37,2013-10-05 12:02:00,
2013-10-05 08:07:00,59.5,57.8,29.74,SSE,160,0.0,0.0,94,0.00,CLR,SCT,0.00,WeatherDisplay:10.37,2013-10-05 12:07:00,
2013-10-05 08:12:00,59.6,57.9,29.74,SE,134,0.1,1.1,94,0.00,CLR,SCT,0.00,WeatherDisplay:10.37,2013-10-05 12:12:00,
2013-10-05 08:18:00,59.7,58.0,29.74,SE,134,0.0,0.0,94,0.00,CLR,SCT,0.00,WeatherDisplay:10.37,2013-10-05 12:18:00,
2013-10-05 08:23:00,59.8,58.1,29.74,SE,134,0.0,0.0,94,0.00,CLR,SCT,0.00,WeatherDisplay:10.37,2013-10-05 12:23:00,
2013-10-05 08:28:00,59.8,58.1,29.74,SE,134,0.0,0.0,94,0.00,CLR,SCT,0.00,WeatherDisplay:10.37,2013-10-05 12:28:00,
2013-10-05 08:33:00,60.0,58.3,29.74,SE,134,0.2,2.3,94,0.00,CLR,SCT,0.00,WeatherDisplay:10.37,2013-10-05 12:33:00,
2013-10-05 08:38:00,60.0,58.3,29.74,SE,134,0.0,0.0,94,0.00,CLR,SCT,0.00,WeatherDisplay:10.37,2013-10-05 12:38:00,
2013-10-05 08:43:00,60.1,58.4,29.75,SE,134,0.0,1.1,94,0.00,CLR,SCT,0.00,WeatherDisplay:10.37,2013-10-05 12:43:00,
2013-10-05 08:48:00,60.2,58.5,29.74,SE,134,0.0,0.0,94,0.00,CLR,SCT,0.00,WeatherDisplay:10.37,2013-10-05 12:48:00,
2013-10-05 08:53:00,60.3,58.6,29.74,SE,134,0.0,0.0,94,0.00,CLR,SCT,0.00,WeatherDisplay:10.37,2013-10-05 12:53:00,
2013-10-05 08:58:00,60.4,58.7,29.74,SE,134,0.0,0.0,94,0.00,CLR,SCT,0.00,WeatherDisplay:10.37,2013-10-05 12:58:00,
2013-10-05 09:03:00,60.5,58.8,29.75,SE,134,0.0,0.0,94,0.00,CLR,SCT,0.00,WeatherDisplay:10.37,2013-10-05 13:03:00,
2013-10-05 09:08:00,60.6,58.9,29.75,SE,134,0.1,0.0,94,0.00,CLR,SCT,0.00,WeatherDisplay:10.37,2013-10-05 13:08:00,
2013-10-05 09:13:00,60.6,58.9,29.75,SE,134,0.0,0.0,94,0.00,CLR,SCT,0.00,WeatherDisplay:10.37,2013-10-05 13:13:00,
2013-10-05 09:18:00,60.7,59.0,29.76,SE,134,0.0,0.0,94,0.00,CLR,SCT,0.00,WeatherDisplay:10.37,2013-10-05 13:18:00,
2013-10-05 09:23:00,60.8,59.1,29.76,SE,134,0.0,0.0,94,0.00,CLR,SCT,0.00,WeatherDisplay:10.37,2013-10-05 13:23:00,
2013-10-05 09:28:00,60.9,59.2,29.76,SE,134,0.0,1.0,94,0.00,CLR,SCT,0.00,WeatherDisplay:10.37,2013-10-05 13:28:00,
2013-10-05 09:33:00,61.0,59.3,29.76,SE,140,0.2,1.1,94,0.00,CLR,SCT,0.00,WeatherDisplay:10.37,2013-10-05 13:33:00,
2013-10-05 09:38:00,61.1,59.4,29.76,SE,141,0.1,0.0,94,0.00,CLR,SCT,0.00,WeatherDisplay:10.37,2013-10-05 13:38:00,
2013-10-05 09:43:00,61.1,59.4,29.76,SE,140,0.0,0.0,94,0.00,CLR,SCT,0.00,WeatherDisplay:10.37,2013-10-05 13:43:00,
2013-10-05 09:48:00,61.1,59.4,29.76,SE,140,0.4,2.0,94,0.00,CLR,SCT,0.00,WeatherDisplay:10.37,2013-10-05 13:48:00,
2013-10-05 09:53:00,61.1,59.4,29.76,SE,140,0.1,1.1,94,0.00,CLR,SCT,0.00,WeatherDisplay:10.37,2013-10-05 13:53:00,
2013-10-05 09:58:00,61.0,59.6,29.76,SE,140,0.2,1.1,95,0.00,CLR,SCT,0.00,WeatherDisplay:10.37,2013-10-05 13:58:00,
2013-10-05 10:03:00,61.0,59.6,29.76,NE,48,0.5,1.1,95,0.00,CLR,SCT,0.00,WeatherDisplay:10.37,2013-10-05 14:03:00,
2013-10-05 10:08:00,60.9,59.5,29.76,NE,50,0.0,0.0,95,0.00,CLR,SCT,0.00,WeatherDisplay:10.37,2013-10-05 14:08:00,
2013-10-05 10:13:00,61.0,59.6,29.76,NE,50,0.2,1.1,95,0.00,CLR,SCT,0.00,WeatherDisplay:10.37,2013-10-05 14:13:00,
2013-10-05 10:18:00,61.1,59.7,29.76,NE,50,0.4,1.0,95,0.00,CLR,SCT,0.00,WeatherDisplay:10.37,2013-10-05 14:18:00,
2013-10-05 10:23:00,61.2,59.8,29.76,NE,50,0.1,1.1,95,0.00,CLR,SCT,0.00,WeatherDisplay:10.37,2013-10-05 14:23:00,
2013-10-05 10:28:00,61.3,59.9,29.76,North,10,0.5,2.3,95,0.00,CLR,SCT,0.00,WeatherDisplay:10.37,2013-10-05 14:28:00,
2013-10-05 10:33:00,61.4,60.0,29.76,North,10,0.1,1.1,95,0.00,CLR,SCT,0.00,WeatherDisplay:10.37,2013-10-05 14:33:00,
2013-10-05 10:38:00,61.6,60.2,29.76,North,10,0.0,1.1,95,0.00,CLR,SCT,0.00,WeatherDisplay:10.37,2013-10-05 14:38:00,
2013-10-05 10:43:00,61.7,60.0,29.76,North,10,0.0,0.0,94,0.00,CLR,SCT,0.00,WeatherDisplay:10.37,2013-10-05 14:43:00,
2013-10-05 10:48:00,62.0,60.3,29.76,North,10,0.3,1.1,94,0.00,CLR,SCT,0.00,WeatherDisplay:10.37,2013-10-05 14:48:00,
2013-10-05 10:53:00,62.1,60.4,29.76,North,10,0.0,0.0,94,0.00,CLR,SCT,0.00,WeatherDisplay:10.37,2013-10-05 14:53:00,
2013-10-05 10:58:00,62.3,60.2,29.76,NE,47,0.2,1.1,93,0.00,CLR,SCT,0.00,WeatherDisplay:10.37,2013-10-05 14:58:00,
2013-10-05 11:03:00,62.6,60.5,29.76,NE,47,0.1,2.3,93,0.00,CLR,SCT,0.00,WeatherDisplay:10.37,2013-10-05 15:03:00,
2013-10-05 11:08:00,63.0,60.9,29.76,NE,47,0.0,1.1,93,0.00,CLR,SCT,0.00,WeatherDisplay:10.37,2013-10-05 15:08:00,
2013-10-05 11:13:00,63.2,60.8,29.75,NE,47,0.0,0.0,92,0.00,CLR,SCT,0.00,WeatherDisplay:10.37,2013-10-05 15:13:00,
2013-10-05 11:18:00,63.4,61.0,29.75,NE,47,0.8,1.1,92,0.00,CLR,SCT,0.00,WeatherDisplay:10.37,2013-10-05 15:18:00,
2013-10-05 11:23:00,63.9,60.9,29.75,NE,47,0.1,1.1,90,0.00,CLR,SCT,0.00,WeatherDisplay:10.37,2013-10-05 15:23:00,
2013-10-05 11:28:00,64.3,61.0,29.75,NE,47,0.2,1.1,89,0.00,CLR,SCT,0.00,WeatherDisplay:10.37,2013-10-05 15:28:00,
2013-10-05 11:33:00,64.6,61.3,29.75,NE,47,0.1,2.3,89,0.00,CLR,SCT,0.00,WeatherDisplay:10.37,2013-10-05 15:33:00,
2013-10-05 11:38:00,64.7,61.4,29.75,NE,47,0.0,1.1,89,0.00,CLR,SCT,0.00,WeatherDisplay:10.37,2013-10-05 15:38:00,
2013-10-05 11:43:00,64.8,61.8,29.75,NE,47,0.0,0.0,90,0.00,CLR,SCT,0.00,WeatherDisplay:10.37,2013-10-05 15:43:00,
2013-10-05 11:48:00,64.8,61.8,29.75,ENE,72,0.0,1.1,90,0.00,CLR,SCT,0.00,WeatherDisplay:10.37,2013-10-05 15:48:00,
2013-10-05 11:53:00,64.8,61.8,29.75,ENE,72,0.1,1.0,90,0.00,CLR,SCT,0.00,WeatherDisplay:10.37,2013-10-05 15:53:00,
2013-10-05 11:58:00,64.7,61.7,29.75,ENE,72,0.0,1.1,90,0.00,CLR,SCT,0.00,WeatherDisplay:10.37,2013-10-05 15:58:00,
2013-10-05 12:03:00,64.9,61.9,29.75,ENE,72,0.0,0.0,90,0.00,CLR,SCT,0.00,WeatherDisplay:10.37,2013-10-05 16:03:00,
2013-10-05 12:08:00,65.0,61.7,29.75,ENE,72,0.2,1.1,89,0.00,CLR,SCT,0.00,WeatherDisplay:10.37,2013-10-05 16:08:00,
2013-10-05 12:13:00,65.2,62.2,29.75,ENE,72,0.0,1.1,90,0.00,CLR,SCT,0.00,WeatherDisplay:10.37,2013-10-05 16:13:00,
2013-10-05 12:18:00,65.4,62.1,29.75,ENE,72,0.0,1.1,89,0.00,CLR,SCT,0.00,WeatherDisplay:10.37,2013-10-05 16:18:00,
2013-10-05 12:23:00,65.4,62.1,29.75,ENE,72,0.2,1.1,89,0.00,CLR,SCT,0.00,WeatherDisplay:10.37,2013-10-05 16:23:00,
2013-10-05 12:28:00,65.5,62.5,29.74,ENE,72,0.0,0.0,90,0.00,CLR,SCT,0.00,WeatherDisplay:10.37,2013-10-05 16:28:00,
2013-10-05 12:33:00,65.8,62.5,29.74,ENE,71,0.0,2.3,89,0.00,CLR,SCT,0.00,WeatherDisplay:10.37,2013-10-05 16:33:00,
2013-10-05 12:38:00,65.9,62.2,29.74,NNE,33,0.4,2.0,88,0.00,CLR,SCT,0.00,WeatherDisplay:10.37,2013-10-05 16:38:00,
2013-10-05 12:43:00,66.0,62.0,29.74,ESE,119,0.3,1.1,87,0.00,CLR,SCT,0.00,WeatherDisplay:10.37,2013-10-05 16:43:00,
2013-10-05 12:48:00,66.3,62.6,29.74,ESE,119,0.1,1.0,88,0.00,CLR,SCT,0.00,WeatherDisplay:10.37,2013-10-05 16:48:00,
2013-10-05 12:53:00,66.6,62.6,29.74,ESE,118,0.3,1.1,87,0.00,CLR,SCT,0.00,WeatherDisplay:10.37,2013-10-05 16:53:00,
2013-10-05 12:58:00,66.7,62.7,29.73,ESE,118,0.0,0.0,87,0.00,CLR,SCT,0.00,WeatherDisplay:10.37,2013-10-05 16:58:00,
2013-10-05 13:03:00,66.7,62.4,29.73,ESE,105,0.7,2.0,86,0.00,CLR,SCT,0.00,WeatherDisplay:10.37,2013-10-05 17:03:00,
2013-10-05 13:08:00,66.5,62.5,29.73,NE,52,0.0,0.0,87,0.00,CLR,SCT,0.00,WeatherDisplay:10.37,2013-10-05 17:08:00,
2013-10-05 13:13:00,66.5,62.5,29.72,NE,52,0.9,1.1,87,0.00,CLR,SCT,0.00,WeatherDisplay:10.37,2013-10-05 17:13:00,
2013-10-05 13:18:00,66.6,62.6,29.72,NE,52,0.0,1.1,87,0.00,CLR,SCT,0.00,WeatherDisplay:10.37,2013-10-05 17:18:00,
2013-10-05 13:23:00,66.7,62.7,29.72,NE,52,0.3,2.3,87,0.00,CLR,SCT,0.00,WeatherDisplay:10.37,2013-10-05 17:23:00,
2013-10-05 13:28:00,67.3,63.0,29.72,WSW,252,0.4,2.0,86,0.00,CLR,SCT,0.00,WeatherDisplay:10.37,2013-10-05 17:28:00,
2013-10-05 13:33:00,68.3,63.6,29.71,WSW,252,0.0,1.0,85,0.00,CLR,SCT,0.00,WeatherDisplay:10.37,2013-10-05 17:33:00,
2013-10-05 13:38:00,68.8,63.4,29.71,West,280,0.3,1.1,83,0.00,CLR,SCT,0.00,WeatherDisplay:10.37,2013-10-05 17:38:00,
2013-10-05 13:43:00,68.5,63.1,29.71,WNW,282,0.0,2.3,83,0.00,CLR,SCT,0.00,WeatherDisplay:10.37,2013-10-05 17:43:00,
2013-10-05 13:48:00,69.0,63.3,29.71,WSW,258,0.4,2.3,82,0.00,CLR,SCT,0.00,WeatherDisplay:10.37,2013-10-05 17:48:00,
2013-10-05 13:53:00,69.4,63.3,29.71,WNW,286,1.1,2.3,81,0.00,CLR,SCT,0.00,WeatherDisplay:10.37,2013-10-05 17:53:00,
2013-10-05 13:58:00,69.3,63.9,29.71,SSE,150,0.0,1.1,83,0.00,CLR,SCT,0.00,WeatherDisplay:10.37,2013-10-05 17:58:00,
2013-10-05 14:03:00,70.5,64.0,29.70,NNW,348,2.1,2.3,80,0.00,CLR,SCT,0.00,WeatherDisplay:10.37,2013-10-05 18:03:00,
2013-10-05 14:08:00,69.9,63.8,29.70,NE,46,1.1,2.0,81,0.00,CLR,SCT,0.00,WeatherDisplay:10.37,2013-10-05 18:08:00,
2013-10-05 14:13:00,70.5,64.4,29.70,NE,52,0.1,1.1,81,0.00,CLR,SCT,0.00,WeatherDisplay:10.37,2013-10-05 18:13:00,
2013-10-05 14:18:00,70.8,64.3,29.69,NE,52,0.1,0.0,80,0.00,CLR,SCT,0.00,WeatherDisplay:10.37,2013-10-05 18:18:00,
2013-10-05 14:23:00,70.7,64.2,29.70,East,92,0.4,2.3,80,0.00,CLR,SCT,0.00,WeatherDisplay:10.37,2013-10-05 18:23:00,
2013-10-05 14:28:00,70.1,64.0,29.70,East,98,0.4,2.3,81,0.00,CLR,SCT,0.00,WeatherDisplay:10.37,2013-10-05 18:28:00,
2013-10-05 14:33:00,70.8,64.7,29.70,NNE,26,0.5,2.0,81,0.00,CLR,SCT,0.00,WeatherDisplay:10.37,2013-10-05 18:33:00,
2013-10-05 14:38:00,71.3,64.4,29.70,North,360,0.4,1.1,79,0.00,CLR,SCT,0.00,WeatherDisplay:10.37,2013-10-05 18:38:00,
2013-10-05 14:43:00,71.3,64.4,29.70,NNW,342,0.9,2.0,79,0.00,CLR,SCT,0.00,WeatherDisplay:10.37,2013-10-05 18:43:00,
2013-10-05 14:48:00,71.6,64.4,29.70,NNE,24,1.2,2.3,78,0.00,CLR,SCT,0.00,WeatherDisplay:10.37,2013-10-05 18:48:00,
2013-10-05 14:53:00,71.4,64.5,29.70,NNE,25,0.0,1.1,79,0.00,CLR,SCT,0.00,WeatherDisplay:10.37,2013-10-05 18:53:00,
2013-10-05 14:58:00,71.1,64.3,29.70,NNE,25,0.1,1.0,79,0.00,CLR,SCT,0.00,WeatherDisplay:10.37,2013-10-05 18:58:00,
2013-10-05 15:03:00,71.0,64.2,29.70,NE,44,0.4,2.3,79,0.00,CLR,SCT,0.00,WeatherDisplay:10.37,2013-10-05 19:03:00,
2013-10-05 15:08:00,71.1,64.6,29.70,NE,44,0.0,0.0,80,0.00,CLR,SCT,0.00,WeatherDisplay:10.37,2013-10-05 19:08:00,
2013-10-05 15:13:00,70.9,64.4,29.70,NE,44,0.0,0.0,80,0.00,CLR,SCT,0.00,WeatherDisplay:10.37,2013-10-05 19:13:00,
2013-10-05 15:18:00,71.0,64.2,29.70,NE,44,0.0,0.0,79,0.00,CLR,SCT,0.00,WeatherDisplay:10.37,2013-10-05 19:18:00,
2013-10-05 15:23:00,71.1,64.6,29.70,NE,44,0.2,1.1,80,0.00,CLR,SCT,0.00,WeatherDisplay:10.37,2013-10-05 19:23:00,
2013-10-05 15:28:00,70.9,64.4,29.70,NE,44,0.1,1.1,80,0.00,CLR,SCT,0.00,WeatherDisplay:10.37,2013-10-05 19:28:00,
2013-10-05 15:33:00,71.0,64.5,29.70,NE,37,0.5,1.0,80,0.00,CLR,SCT,0.00,WeatherDisplay:10.37,2013-10-05 19:33:00,
2013-10-05 15:38:00,71.0,64.5,29.70,NE,37,0.2,1.1,80,0.00,CLR,SCT,0.00,WeatherDisplay:10.37,2013-10-05 19:38:00,
2013-10-05 15:43:00,71.0,64.2,29.70,NE,37,0.0,0.0,79,0.00,CLR,SCT,0.00,WeatherDisplay:10.37,2013-10-05 19:43:00,
2013-10-05 15:48:00,71.0,64.2,29.70,NE,37,0.9,1.1,79,0.00,CLR,SCT,0.00,WeatherDisplay:10.37,2013-10-05 19:48:00,
2013-10-05 15:53:00,71.0,64.2,29.70,NE,37,0.8,3.5,79,0.00,CLR,SCT,0.00,WeatherDisplay:10.37,2013-10-05 19:53:00,
2013-10-05 15:58:00,71.0,63.8,29.70,NE,37,0.1,1.1,78,0.00,CLR,SCT,0.00,WeatherDisplay:10.37,2013-10-05 19:58:00,
2013-10-05 16:03:00,71.1,64.3,29.70,NE,37,0.0,0.0,79,0.00,CLR,SCT,0.00,WeatherDisplay:10.37,2013-10-05 20:03:00,
2013-10-05 16:08:00,71.0,64.5,29.70,NE,37,0.0,0.0,80,0.00,CLR,SCT,0.00,WeatherDisplay:10.37,2013-10-05 20:08:00,
2013-10-05 16:13:00,70.9,64.4,29.70,NE,37,0.0,1.1,80,0.00,CLR,SCT,0.00,WeatherDisplay:10.37,2013-10-05 20:13:00,
2013-10-05 16:18:00,70.7,64.2,29.70,NE,37,0.0,0.0,80,0.00,CLR,SCT,0.00,WeatherDisplay:10.37,2013-10-05 20:18:00,
2013-10-05 16:23:00,70.6,63.4,29.70,NE,37,0.1,1.1,78,0.00,CLR,SCT,0.00,WeatherDisplay:10.37,2013-10-05 20:23:00,
2013-10-05 16:28:00,70.7,64.6,29.70,NE,37,0.0,0.0,81,0.00,CLR,SCT,0.00,WeatherDisplay:10.37,2013-10-05 20:28:00,
2013-10-05 16:33:00,70.7,63.5,29.70,NE,37,0.0,1.1,78,0.00,CLR,SCT,0.00,WeatherDisplay:10.37,2013-10-05 20:33:00,
2013-10-05 16:38:00,70.8,64.3,29.70,NE,37,0.0,0.0,80,0.00,CLR,SCT,0.00,WeatherDisplay:10.37,2013-10-05 20:38:00,
2013-10-05 16:43:00,70.8,63.6,29.70,NE,37,0.0,0.0,78,0.00,CLR,SCT,0.00,WeatherDisplay:10.37,2013-10-05 20:43:00,
2013-10-05 16:48:00,70.7,63.5,29.70,NE,37,0.0,0.0,78,0.00,CLR,SCT,0.00,WeatherDisplay:10.37,2013-10-05 20:48:00,
2013-10-05 16:53:00,70.6,63.8,29.70,NE,37,0.0,0.0,79,0.00,CLR,SCT,0.00,WeatherDisplay:10.37,2013-10-05 20:53:00,
2013-10-05 16:58:00,70.5,64.0,29.70,NE,37,0.0,0.0,80,0.00,CLR,SCT,0.00,WeatherDisplay:10.37,2013-10-05 20:58:00,
2013-10-05 17:03:00,70.5,64.0,29.70,NE,37,0.0,0.0,80,0.00,CLR,SCT,0.00,WeatherDisplay:10.37,2013-10-05 21:03:00,
2013-10-05 17:08:00,70.6,64.5,29.70,NE,37,0.0,0.0,81,0.00,CLR,SCT,0.00,WeatherDisplay:10.37,2013-10-05 21:08:00,
2013-10-05 17:13:00,70.5,64.4,29.70,NE,37,0.0,0.0,81,0.00,CLR,SCT,0.00,WeatherDisplay:10.37,2013-10-05 21:13:00,
2013-10-05 17:18:00,70.4,64.3,29.70,NE,37,0.0,0.0,81,0.00,CLR,SCT,0.00,WeatherDisplay:10.37,2013-10-05 21:18:00,
2013-10-05 17:23:00,70.4,64.6,29.70,NE,37,0.0,0.0,82,0.00,CLR,SCT,0.00,WeatherDisplay:10.37,2013-10-05 21:23:00,
2013-10-05 17:28:00,70.3,64.5,29.70,NE,37,0.0,0.0,82,0.00,CLR,SCT,0.00,WeatherDisplay:10.37,2013-10-05 21:28:00,
2013-10-05 17:33:00,70.2,64.8,29.70,NE,37,0.0,0.0,83,0.00,CLR,SCT,0.00,WeatherDisplay:10.37,2013-10-05 21:33:00,
2013-10-05 17:38:00,70.1,64.7,29.70,NE,37,0.0,0.0,83,0.00,CLR,SCT,0.00,WeatherDisplay:10.37,2013-10-05 21:38:00,
2013-10-05 17:43:00,70.0,64.6,29.70,NE,37,0.0,0.0,83,0.00,CLR,SCT,0.00,WeatherDisplay:10.37,2013-10-05 21:43:00,
2013-10-05 17:48:00,69.9,64.8,29.70,NE,37,0.0,0.0,84,0.00,CLR,SCT,0.00,WeatherDisplay:10.37,2013-10-05 21:48:00,
2013-10-05 17:53:00,69.6,64.5,29.70,NE,37,0.0,0.0,84,0.00,CLR,SCT,0.00,WeatherDisplay:10.37,2013-10-05 21:53:00,
2013-10-05 17:58:00,69.3,64.6,29.70,NE,37,0.0,0.0,85,0.00,CLR,SCT,0.00,WeatherDisplay:10.37,2013-10-05 21:58:00,
2013-10-05 18:03:00,69.0,64.6,29.70,NE,37,0.0,0.0,86,0.00,CLR,SCT,0.00,WeatherDisplay:10.37,2013-10-05 22:03:00,
2013-10-05 18:08:00,68.6,64.6,29.70,NE,37,0.0,0.0,87,0.00,CLR,SCT,0.00,WeatherDisplay:10.37,2013-10-05 22:08:00,
2013-10-05 18:13:00,68.4,64.4,29.70,NE,37,0.0,0.0,87,0.00,CLR,SCT,0.00,WeatherDisplay:10.37,2013-10-05 22:13:00,
2013-10-05 18:18:00,68.0,64.3,29.70,NE,37,0.0,0.0,88,0.00,CLR,SCT,0.00,WeatherDisplay:10.37,2013-10-05 22:18:00,
2013-10-05 18:23:00,67.6,64.2,29.70,NE,37,0.0,0.0,89,0.00,CLR,SCT,0.00,WeatherDisplay:10.37,2013-10-05 22:23:00,
2013-10-05 18:28:00,67.3,63.9,29.70,NE,37,0.0,0.0,89,0.00,CLR,SCT,0.00,WeatherDisplay:10.37,2013-10-05 22:28:00,
2013-10-05 18:33:00,67.0,64.0,29.71,NE,37,0.0,0.0,90,0.00,CLR,SCT,0.00,WeatherDisplay:10.37,2013-10-05 22:33:00,
2013-10-05 18:38:00,66.8,63.8,29.71,NE,37,0.0,0.0,90,0.00,CLR,SCT,0.00,WeatherDisplay:10.37,2013-10-05 22:38:00,
2013-10-05 18:43:00,66.5,63.5,29.71,NE,37,0.0,0.0,90,0.00,CLR,SCT,0.00,WeatherDisplay:10.37,2013-10-05 22:43:00,
2013-10-05 18:48:00,66.3,63.3,29.71,NE,37,0.0,0.0,90,0.00,CLR,SCT,0.00,WeatherDisplay:10.37,2013-10-05 22:48:00,
2013-10-05 18:53:00,66.2,63.5,29.72,NE,37,0.0,0.0,91,0.00,CLR,SCT,0.00,WeatherDisplay:10.37,2013-10-05 22:53:00,
2013-10-05 18:58:00,66.1,63.4,29.71,NE,37,0.0,0.0,91,0.00,CLR,SCT,0.00,WeatherDisplay:10.37,2013-10-05 22:58:00,
2013-10-05 19:03:00,65.9,63.2,29.71,NE,37,0.0,0.0,91,0.00,CLR,SCT,0.00,WeatherDisplay:10.37,2013-10-05 23:03:00,
2013-10-05 19:08:00,65.8,63.4,29.72,NE,37,0.0,0.0,92,0.00,CLR,SCT,0.00,WeatherDisplay:10.37,2013-10-05 23:08:00,
2013-10-05 19:13:00,65.6,63.2,29.72,NE,37,0.0,0.0,92,0.00,CLR,SCT,0.00,WeatherDisplay:10.37,2013-10-05 23:13:00,
2013-10-05 19:18:00,65.4,63.0,29.72,NE,37,0.1,1.1,92,0.00,CLR,SCT,0.00,WeatherDisplay:10.37,2013-10-05 23:18:00,
2013-10-05 19:23:00,65.4,63.0,29.72,NE,37,0.1,1.1,92,0.00,CLR,SCT,0.00,WeatherDisplay:10.37,2013-10-05 23:23:00,
2013-10-05 19:28:00,65.4,63.0,29.72,NE,37,0.1,1.1,92,0.00,CLR,SCT,0.00,WeatherDisplay:10.37,2013-10-05 23:28:00,
2013-10-05 19:33:00,65.2,62.8,29.72,NE,46,0.0,0.0,92,0.00,CLR,SCT,0.00,WeatherDisplay:10.37,2013-10-05 23:33:00,
2013-10-05 19:38:00,65.0,62.9,29.72,NE,46,0.0,1.1,93,0.00,CLR,SCT,0.00,WeatherDisplay:10.37,2013-10-05 23:38:00,
2013-10-05 19:43:00,64.9,62.8,29.72,NE,46,0.0,0.0,93,0.00,CLR,SCT,0.00,WeatherDisplay:10.37,2013-10-05 23:43:00,
2013-10-05 19:48:00,64.9,63.1,29.72,NE,46,0.0,0.0,94,0.00,CLR,SCT,0.00,WeatherDisplay:10.37,2013-10-05 23:48:00,
2013-10-05 19:53:00,64.8,63.0,29.72,NE,46,0.1,1.1,94,0.00,CLR,SCT,0.00,WeatherDisplay:10.37,2013-10-05 23:53:00,
2013-10-05 19:58:00,64.9,63.1,29.72,NE,46,0.0,0.0,94,0.00,CLR,SCT,0.00,WeatherDisplay:10.37,2013-10-05 23:58:00,
2013-10-05 20:03:00,64.8,63.0,29.72,NE,46,0.0,0.0,94,0.00,CLR,SCT,0.00,WeatherDisplay:10.37,2013-10-06 00:03:00,
2013-10-05 20:08:00,64.8,63.3,29.72,NE,46,0.1,1.1,95,0.00,CLR,SCT,0.00,WeatherDisplay:10.37,2013-10-06 00:08:00,
2013-10-05 20:13:00,64.8,63.3,29.72,NE,46,0.0,0.0,95,0.00,CLR,SCT,0.00,WeatherDisplay:10.37,2013-10-06 00:13:00,
2013-10-05 20:18:00,64.7,63.2,29.73,NE,46,0.0,0.0,95,0.00,CLR,SCT,0.00,WeatherDisplay:10.37,2013-10-06 00:18:00,
2013-10-05 20:23:00,64.8,63.3,29.73,NE,46,0.0,0.0,95,0.00,CLR,SCT,0.00,WeatherDisplay:10.37,2013-10-06 00:23:00,
2013-10-05 20:28:00,64.7,63.2,29.73,NE,46,0.0,0.0,95,0.00,CLR,SCT,0.00,WeatherDisplay:10.37,2013-10-06 00:28:00,
2013-10-05 20:33:00,64.6,63.1,29.73,NE,46,0.1,1.1,95,0.00,CLR,SCT,0.00,WeatherDisplay:10.37,2013-10-06 00:33:00,
2013-10-05 20:38:00,64.6,63.1,29.73,NE,46,0.0,0.0,95,0.00,CLR,SCT,0.00,WeatherDisplay:10.37,2013-10-06 00:38:00,
2013-10-05 20:43:00,64.5,63.0,29.73,NE,46,0.0,0.0,95,0.00,CLR,SCT,0.00,WeatherDisplay:10.37,2013-10-06 00:43:00,
2013-10-05 20:48:00,64.5,63.0,29.74,NE,46,0.0,0.0,95,0.00,CLR,SCT,0.00,WeatherDisplay:10.37,2013-10-06 00:48:00,
2013-10-05 20:53:00,64.4,62.9,29.74,NE,46,0.1,1.1,95,0.00,CLR,SCT,0.00,WeatherDisplay:10.37,2013-10-06 00:53:00,
2013-10-05 20:58:00,64.4,62.9,29.74,NE,46,0.1,1.1,95,0.00,CLR,SCT,0.00,WeatherDisplay:10.37,2013-10-06 00:58:00,
2013-10-05 21:03:00,64.4,62.9,29.74,NE,46,0.0,0.0,95,0.00,CLR,SCT,0.00,WeatherDisplay:10.37,2013-10-06 01:03:00,
2013-10-05 21:08:00,64.4,62.9,29.74,NE,46,0.0,0.0,95,0.00,CLR,SCT,0.00,WeatherDisplay:10.37,2013-10-06 01:08:00,
2013-10-05 21:13:00,64.3,62.8,29.74,NE,46,0.0,0.0,95,0.00,CLR,SCT,0.00,WeatherDisplay:10.37,2013-10-06 01:13:00,
2013-10-05 21:18:00,64.3,62.8,29.74,NE,46,0.0,0.0,95,0.00,CLR,SCT,0.00,WeatherDisplay:10.37,2013-10-06 01:18:00,
2013-10-05 21:23:00,64.3,62.8,29.74,NE,46,0.0,1.1,95,0.00,CLR,SCT,0.00,WeatherDisplay:10.37,2013-10-06 01:23:00,
2013-10-05 21:28:00,64.2,62.7,29.74,NE,46,0.0,1.1,95,0.00,CLR,SCT,0.00,WeatherDisplay:10.37,2013-10-06 01:28:00,
2013-10-05 21:33:00,64.2,62.7,29.74,NE,46,0.0,1.0,95,0.00,CLR,SCT,0.00,WeatherDisplay:10.37,2013-10-06 01:33:00,
2013-10-05 21:38:00,64.1,62.6,29.74,NE,51,0.0,1.1,95,0.00,CLR,SCT,0.00,WeatherDisplay:10.37,2013-10-06 01:38:00,
2013-10-05 21:43:00,64.0,62.5,29.74,NE,51,0.0,0.0,95,0.00,CLR,SCT,0.00,WeatherDisplay:10.37,2013-10-06 01:43:00,
2013-10-05 21:48:00,64.0,62.5,29.74,NE,51,0.0,0.0,95,0.00,CLR,SCT,0.00,WeatherDisplay:10.37,2013-10-06 01:48:00,
2013-10-05 21:53:00,63.9,62.4,29.75,NE,51,0.0,0.0,95,0.00,CLR,SCT,0.00,WeatherDisplay:10.37,2013-10-06 01:53:00,
2013-10-05 21:58:00,63.8,62.3,29.75,NE,51,0.0,0.0,95,0.00,CLR,SCT,0.00,WeatherDisplay:10.37,2013-10-06 01:58:00,
2013-10-05 22:03:00,63.8,62.3,29.75,NE,51,0.0,0.0,95,0.00,CLR,SCT,0.00,WeatherDisplay:10.37,2013-10-06 02:03:00,
2013-10-05 22:08:00,63.8,62.6,29.75,NE,51,0.0,0.0,96,0.00,CLR,SCT,0.00,WeatherDisplay:10.37,2013-10-06 02:08:00,
2013-10-05 22:13:00,63.7,62.5,29.75,NE,51,0.0,1.1,96,0.00,CLR,SCT,0.00,WeatherDisplay:10.37,2013-10-06 02:13:00,
2013-10-05 22:18:00,63.7,62.5,29.75,East,94,0.4,2.3,96,0.00,CLR,SCT,0.00,WeatherDisplay:10.37,2013-10-06 02:18:00,
2013-10-05 22:23:00,63.6,62.1,29.75,East,94,0.0,0.0,95,0.00,CLR,SCT,0.00,WeatherDisplay:10.37,2013-10-06 02:23:00,
2013-10-05 22:28:00,63.5,62.0,29.74,East,94,0.1,1.1,95,0.00,CLR,SCT,0.00,WeatherDisplay:10.37,2013-10-06 02:28:00,
2013-10-05 22:33:00,63.4,61.9,29.74,East,94,0.8,2.3,95,0.00,CLR,SCT,0.00,WeatherDisplay:10.37,2013-10-06 02:33:00,
2013-10-05 22:38:00,63.4,61.9,29.74,East,94,0.1,1.1,95,0.00,CLR,SCT,0.00,WeatherDisplay:10.37,2013-10-06 02:38:00,
2013-10-05 22:43:00,63.3,61.8,29.74,East,94,0.8,2.3,95,0.00,CLR,SCT,0.00,WeatherDisplay:10.37,2013-10-06 02:43:00,
2013-10-05 22:48:00,63.2,61.7,29.74,East,94,0.0,0.0,95,0.00,CLR,SCT,0.00,WeatherDisplay:10.37,2013-10-06 02:48:00,
2013-10-05 22:53:00,63.1,61.6,29.74,East,94,0.0,0.0,95,0.00,CLR,SCT,0.00,WeatherDisplay:10.37,2013-10-06 02:53:00,
2013-10-05 22:58:00,63.1,61.6,29.74,East,94,0.0,0.0,95,0.00,CLR,SCT,0.00,WeatherDisplay:10.37,2013-10-06 02:58:00,
2013-10-05 23:03:00,63.1,61.6,29.75,East,94,0.0,0.0,95,0.00,CLR,SCT,0.00,WeatherDisplay:10.37,2013-10-06 03:03:00,
2013-10-05 23:08:00,63.0,61.5,29.75,East,94,0.0,0.0,95,0.00,CLR,SCT,0.00,WeatherDisplay:10.37,2013-10-06 03:08:00,
2013-10-05 23:13:00,63.0,61.5,29.75,East,94,0.0,0.0,95,0.00,CLR,SCT,0.00,WeatherDisplay:10.37,2013-10-06 03:13:00,
2013-10-05 23:18:00,63.0,61.5,29.75,East,94,0.0,0.0,95,0.00,CLR,SCT,0.00,WeatherDisplay:10.37,2013-10-06 03:18:00,
2013-10-05 23:23:00,62.9,61.4,29.75,East,94,0.0,0.0,95,0.00,CLR,SCT,0.00,WeatherDisplay:10.37,2013-10-06 03:23:00,
2013-10-05 23:28:00,63.0,61.5,29.75,East,94,0.0,0.0,95,0.00,CLR,SCT,0.00,WeatherDisplay:10.37,2013-10-06 03:28:00,
2013-10-05 23:33:00,62.9,61.4,29.75,East,94,0.1,1.1,95,0.00,CLR,SCT,0.00,WeatherDisplay:10.37,2013-10-06 03:33:00,
2013-10-05 23:38:00,62.9,61.7,29.75,East,94,0.0,0.0,96,0.00,CLR,SCT,0.00,WeatherDisplay:10.37,2013-10-06 03:38:00,
2013-10-05 23:43:00,62.9,61.7,29.75,East,94,0.0,0.0,96,0.00,CLR,SCT,0.00,WeatherDisplay:10.37,2013-10-06 03:43:00,
2013-10-05 23:48:00,62.9,61.7,29.75,East,93,0.0,0.0,96,0.00,CLR,SCT,0.00,WeatherDisplay:10.37,2013-10-06 03:48:00,
2013-10-05 23:53:00,62.9,61.7,29.75,East,94,0.1,1.1,96,0.01,RA,SCT,0.01,WeatherDisplay:10.37,2013-10-06 03:53:00,
2013-10-05 23:58:00,62.9,61.7,29.75,East,94,0.0,0.0,96,0.02,RA,SCT,0.02,WeatherDisplay:10.37,2013-10-06 03:58:00,